createdAt,value
2018-07-20T00:01:44.445Z,19.45
2018-07-20T00:04:15.024Z,19.45
2018-07-20T00:06:45.659Z,19.41
2018-07-20T00:09:16.386Z,19.35
2018-07-20T00:11:47.184Z,19.34
2018-07-20T00:14:17.831Z,19.29
2018-07-20T00:16:49.352Z,19.21
2018-07-20T00:19:20.255Z,19.13
2018-07-20T00:21:56.115Z,19.06
2018-07-20T00:24:26.879Z,18.97
2018-07-20T00:26:57.037Z,18.91
2018-07-20T00:29:27.141Z,18.89
2018-07-20T00:31:58.264Z,18.90
2018-07-20T00:34:29.632Z,18.88
2018-07-20T00:37:00.324Z,18.81
2018-07-20T00:39:30.864Z,18.76
2018-07-20T00:42:01.357Z,18.73
2018-07-20T00:44:32.095Z,18.74
2018-07-20T00:47:02.118Z,18.71
2018-07-20T00:49:32.664Z,18.68
2018-07-20T00:52:03.615Z,18.62
2018-07-20T00:54:35.179Z,18.60
2018-07-20T00:57:05.917Z,18.62
2018-07-20T00:59:36.446Z,18.70
2018-07-20T01:02:06.974Z,18.70
2018-07-20T01:04:37.015Z,18.70
2018-07-20T01:07:07.718Z,18.72
2018-07-20T01:09:38.316Z,18.73
2018-07-20T01:12:10.117Z,18.72
2018-07-20T01:14:41.036Z,18.82
2018-07-20T01:17:11.632Z,18.70
2018-07-20T01:19:42.212Z,18.74
2018-07-20T01:22:12.926Z,18.58
2018-07-20T01:24:43.790Z,18.57
2018-07-20T01:27:14.375Z,18.55
2018-07-20T01:29:45.254Z,18.52
2018-07-20T01:32:16.178Z,18.57
2018-07-20T01:34:46.747Z,18.55
2018-07-20T01:37:18.134Z,18.41
2018-07-20T01:39:48.760Z,18.43
2018-07-20T01:42:19.387Z,18.41
2018-07-20T01:44:50.022Z,18.29
2018-07-20T01:47:20.665Z,18.16
2018-07-20T01:49:53.208Z,18.01
2018-07-20T01:52:24.260Z,17.87
2018-07-20T01:54:54.842Z,17.75
2018-07-20T01:57:25.323Z,17.69
2018-07-20T01:59:55.863Z,17.68
2018-07-20T02:02:26.729Z,17.65
2018-07-20T02:04:57.358Z,17.64
2018-07-20T02:07:27.957Z,17.63
2018-07-20T02:09:59.784Z,17.59
2018-07-20T02:12:30.549Z,17.56
2018-07-20T02:15:01.164Z,17.57
2018-07-20T02:17:31.662Z,17.59
2018-07-20T02:20:02.110Z,17.69
2018-07-20T02:22:32.664Z,17.71
2018-07-20T02:25:03.238Z,17.74
2018-07-20T02:27:34.691Z,17.78
2018-07-20T02:30:06.875Z,17.72
2018-07-20T02:32:37.461Z,17.71
2018-07-20T02:35:08.691Z,17.68
2018-07-20T02:37:39.189Z,17.60
2018-07-20T02:40:09.345Z,17.52
2018-07-20T02:42:40.512Z,17.51
2018-07-20T02:45:11.245Z,17.47
2018-07-20T02:47:42.237Z,17.46
2018-07-20T02:50:12.945Z,17.37
2018-07-20T02:52:43.581Z,17.32
2018-07-20T02:55:14.131Z,17.27
2018-07-20T02:57:44.741Z,17.24
2018-07-20T03:00:15.438Z,17.17
2018-07-20T03:02:46.001Z,17.13
2018-07-20T03:05:17.268Z,17.14
2018-07-20T03:07:48.984Z,17.15
2018-07-20T03:10:19.861Z,17.15
2018-07-20T03:12:50.534Z,17.10
2018-07-20T03:15:21.078Z,16.97
2018-07-20T03:17:51.760Z,16.85
2018-07-20T03:20:21.958Z,16.82
2018-07-20T03:22:52.591Z,16.78
2018-07-20T03:25:23.204Z,16.78
2018-07-20T03:27:54.772Z,16.80
2018-07-20T03:30:25.516Z,16.82
2018-07-20T03:32:55.659Z,16.79
2018-07-20T03:35:26.312Z,16.75
2018-07-20T03:37:56.996Z,16.78
2018-07-20T03:40:27.740Z,16.73
2018-07-20T03:42:58.483Z,16.60
2018-07-20T03:45:29.528Z,16.54
2018-07-20T03:48:01.138Z,16.54
2018-07-20T03:50:31.859Z,16.52
2018-07-20T03:53:02.610Z,16.50
2018-07-20T03:55:32.639Z,16.58
2018-07-20T03:58:03.450Z,16.60
2018-07-20T04:00:34.002Z,16.59
2018-07-20T04:03:04.662Z,16.57
2018-07-20T04:05:35.542Z,16.55
2018-07-20T04:08:06.863Z,16.53
2018-07-20T04:10:37.632Z,16.58
2018-07-20T04:13:08.318Z,16.63
2018-07-20T04:15:38.854Z,16.68
2018-07-20T04:18:09.492Z,16.71
2018-07-20T04:20:40.130Z,16.70
2018-07-20T04:23:10.910Z,16.69
2018-07-20T04:25:42.057Z,16.76
2018-07-20T04:28:13.001Z,16.77
2018-07-20T04:30:43.673Z,16.78
2018-07-20T04:33:14.627Z,16.81
2018-07-20T04:35:45.134Z,16.84
2018-07-20T04:38:15.827Z,16.88
2018-07-20T04:40:46.518Z,16.89
2018-07-20T04:43:17.609Z,16.99
2018-07-20T04:45:49.120Z,17.07
2018-07-20T04:48:19.651Z,17.16
2018-07-20T04:50:50.322Z,17.28
2018-07-20T04:53:20.859Z,17.35
2018-07-20T04:55:51.570Z,17.47
2018-07-20T04:58:22.035Z,17.54
2018-07-20T05:00:52.643Z,17.66
2018-07-20T05:03:23.915Z,17.72
2018-07-20T05:05:55.244Z,17.82
2018-07-20T05:08:25.718Z,17.84
2018-07-20T05:10:56.390Z,17.89
2018-07-20T05:13:26.498Z,17.99
2018-07-20T05:15:57.166Z,18.02
2018-07-20T05:18:27.817Z,18.10
2018-07-20T05:20:58.553Z,18.18
2018-07-20T05:23:30.504Z,18.27
2018-07-20T05:26:01.388Z,18.41
2018-07-20T05:28:32.608Z,18.53
2018-07-20T05:31:03.387Z,18.68
2018-07-20T05:33:34.062Z,18.77
2018-07-20T05:36:04.875Z,18.92
2018-07-20T05:38:35.897Z,19.07
2018-07-20T05:41:06.527Z,19.17
2018-07-20T05:43:37.470Z,19.35
2018-07-20T05:46:08.319Z,19.45
2018-07-20T05:48:39.064Z,19.59
2018-07-20T05:51:10.373Z,19.72
2018-07-20T05:53:41.869Z,19.65
2018-07-20T05:56:12.669Z,19.84
2018-07-20T05:58:44.160Z,20.06
2018-07-20T06:01:15.141Z,20.20
2018-07-20T06:03:45.611Z,20.35
2018-07-20T06:06:16.542Z,20.52
2018-07-20T06:08:47.951Z,20.83
2018-07-20T06:11:18.938Z,21.61
2018-07-20T06:13:51.536Z,22.54
2018-07-20T06:16:22.305Z,23.43
2018-07-20T06:18:53.047Z,24.23
2018-07-20T06:21:24.267Z,24.91
2018-07-20T06:23:55.438Z,25.21
2018-07-20T06:26:26.133Z,25.57
2018-07-20T06:28:57.363Z,25.79
2018-07-20T06:31:29.001Z,26.38
2018-07-20T06:33:59.748Z,26.57
2018-07-20T06:36:30.521Z,26.41
2018-07-20T06:39:01.425Z,26.86
2018-07-20T06:41:32.191Z,27.42
2018-07-20T06:44:02.833Z,27.69
2018-07-20T06:46:33.758Z,28.01
2018-07-20T06:49:05.838Z,28.61
2018-07-20T06:51:37.448Z,28.77
2018-07-20T06:54:08.136Z,28.84
2018-07-20T06:56:38.806Z,29.12
2018-07-20T06:59:09.435Z,29.39
2018-07-20T07:01:40.057Z,29.73
2018-07-20T07:04:10.827Z,29.98
2018-07-20T07:06:42.429Z,30.40
2018-07-20T07:09:14.121Z,30.58
2018-07-20T07:11:44.914Z,30.70
2018-07-20T07:14:16.357Z,31.09
2018-07-20T07:16:47.270Z,31.13
2018-07-20T07:19:17.982Z,31.17
2018-07-20T07:21:49.636Z,31.15
2018-07-20T07:24:20.691Z,31.54
2018-07-20T07:26:52.287Z,32.06
2018-07-20T07:29:22.977Z,32.29
2018-07-20T07:31:53.704Z,32.27
2018-07-20T07:34:24.574Z,32.52
2018-07-20T07:36:55.406Z,32.77
2018-07-20T07:39:26.249Z,32.73
2018-07-20T07:41:57.812Z,33.05
2018-07-20T07:44:29.639Z,33.20
2018-07-20T07:47:00.552Z,33.52
2018-07-20T07:49:31.768Z,33.88
2018-07-20T07:52:02.363Z,34.17
2018-07-20T07:54:33.103Z,34.19
2018-07-20T07:57:04.149Z,34.48
2018-07-20T07:59:35.174Z,33.47
2018-07-20T08:02:06.765Z,34.70
2018-07-20T08:04:38.839Z,34.86
2018-07-20T08:07:09.773Z,34.71
2018-07-20T08:09:40.795Z,34.51
2018-07-20T08:12:11.449Z,35.36
2018-07-20T08:14:42.593Z,35.75
2018-07-20T08:17:13.926Z,35.81
2018-07-20T08:19:46.314Z,35.69
2018-07-20T08:22:19.418Z,35.37
2018-07-20T08:24:53.173Z,35.38
2018-07-20T08:27:24.265Z,35.42
2018-07-20T08:29:55.596Z,35.37
2018-07-20T08:32:28.364Z,36.75
2018-07-20T08:35:00.125Z,36.81
2018-07-20T08:37:33.095Z,37.03
2018-07-20T08:40:05.485Z,37.87
2018-07-20T08:42:36.576Z,38.20
2018-07-20T08:45:09.786Z,38.27
2018-07-20T08:47:40.926Z,38.49
2018-07-20T08:50:12.556Z,38.62
2018-07-20T08:52:44.086Z,39.14
2018-07-20T08:55:15.310Z,38.76
2018-07-20T08:57:45.735Z,39.04
2018-07-20T09:00:16.853Z,38.50
2018-07-20T09:02:48.058Z,38.20
2018-07-20T09:05:19.386Z,38.00
2018-07-20T09:07:51.783Z,36.81
2018-07-20T09:10:28.046Z,38.19
2018-07-20T09:13:00.144Z,38.91
2018-07-20T09:15:31.203Z,38.26
2018-07-20T09:18:03.715Z,38.19
2018-07-20T09:20:36.157Z,38.59
2018-07-20T09:23:09.467Z,38.94
2018-07-20T09:25:40.888Z,38.95
2018-07-20T09:28:13.262Z,39.62
2018-07-20T09:30:44.095Z,39.89
2018-07-20T09:33:15.803Z,39.14
2018-07-20T09:35:47.047Z,39.34
2018-07-20T09:38:18.311Z,39.77
2018-07-20T09:40:50.719Z,40.11
2018-07-20T09:43:21.649Z,40.55
2018-07-20T09:45:53.143Z,40.16
2018-07-20T09:48:24.459Z,40.17
2018-07-20T09:50:56.081Z,40.33
2018-07-20T09:53:29.641Z,39.83
2018-07-20T09:56:00.631Z,39.72
2018-07-20T09:58:33.642Z,40.10
2018-07-20T10:01:04.914Z,40.40
2018-07-20T10:03:36.109Z,39.99
2018-07-20T10:06:07.616Z,40.73
2018-07-20T10:08:39.709Z,40.58
2018-07-20T10:11:11.023Z,40.60
2018-07-20T10:13:44.500Z,40.70
2018-07-20T10:16:17.332Z,40.95
2018-07-20T10:18:48.777Z,40.66
2018-07-20T10:21:20.016Z,38.67
2018-07-20T10:23:52.268Z,40.39
2018-07-20T10:26:23.643Z,40.70
2018-07-20T10:28:55.574Z,40.98
2018-07-20T10:31:27.488Z,41.30
2018-07-20T10:33:59.796Z,41.12
2018-07-20T10:36:31.071Z,41.21
2018-07-20T10:39:01.775Z,41.42
2018-07-20T10:41:32.495Z,41.45
2018-07-20T10:44:03.110Z,41.39
2018-07-20T10:46:34.545Z,41.02
2018-07-20T10:49:06.238Z,41.20
2018-07-20T10:51:36.914Z,41.17
2018-07-20T10:54:07.778Z,41.35
2018-07-20T10:56:38.546Z,41.81
2018-07-20T10:59:09.789Z,41.69
2018-07-20T11:01:41.200Z,41.38
2018-07-20T11:04:12.429Z,41.16
2018-07-20T11:06:44.855Z,41.56
2018-07-20T11:09:15.730Z,41.75
2018-07-20T11:11:47.001Z,41.76
2018-07-20T11:14:19.571Z,41.55
2018-07-20T11:16:51.433Z,41.42
2018-07-20T11:19:22.717Z,41.41
2018-07-20T11:21:56.421Z,41.52
2018-07-20T11:24:30.063Z,41.35
2018-07-20T11:27:01.364Z,41.01
2018-07-20T11:29:32.641Z,41.51
2018-07-20T11:32:04.636Z,40.23
2018-07-20T11:34:36.929Z,40.65
2018-07-20T11:37:11.091Z,41.02
2018-07-20T11:39:43.185Z,40.59
2018-07-20T11:42:15.070Z,40.28
2018-07-20T11:44:47.455Z,40.28
2018-07-20T11:47:18.454Z,39.83
2018-07-20T11:49:50.239Z,40.08
2018-07-20T11:52:25.364Z,39.87
2018-07-20T11:54:57.597Z,39.24
2018-07-20T11:57:28.590Z,38.90
2018-07-20T12:00:00.616Z,38.46
2018-07-20T12:02:31.238Z,39.31
2018-07-20T12:05:01.978Z,39.48
2018-07-20T12:07:33.065Z,40.22
2018-07-20T12:10:05.232Z,40.72
2018-07-20T12:12:36.292Z,40.81
2018-07-20T12:15:07.712Z,41.00
2018-07-20T12:17:39.141Z,40.94
2018-07-20T12:20:11.341Z,41.01
2018-07-20T12:22:42.504Z,38.80
2018-07-20T12:25:14.480Z,38.92
2018-07-20T12:27:47.748Z,37.13
2018-07-20T12:30:20.503Z,37.27
2018-07-20T12:32:51.474Z,36.90
2018-07-20T12:35:28.387Z,38.46
2018-07-20T12:37:59.496Z,39.61
2018-07-20T12:40:32.141Z,40.33
2018-07-20T12:43:02.932Z,40.75
2018-07-20T12:45:33.855Z,41.10
2018-07-20T12:48:05.554Z,41.46
2018-07-20T12:50:38.038Z,41.60
2018-07-20T12:53:13.824Z,41.37
2018-07-20T12:55:46.276Z,41.10
2018-07-20T12:58:17.664Z,40.97
2018-07-20T13:00:48.589Z,40.46
2018-07-20T13:03:19.704Z,39.01
2018-07-20T13:05:50.705Z,38.82
2018-07-20T13:08:22.522Z,39.06
2018-07-20T13:10:53.805Z,38.06
2018-07-20T13:13:26.040Z,38.29
2018-07-20T13:15:57.746Z,38.87
2018-07-20T13:18:28.586Z,35.44
2018-07-20T13:20:59.637Z,35.67
2018-07-20T13:23:30.770Z,36.87
2018-07-20T13:26:01.610Z,37.77
2018-07-20T13:28:32.957Z,37.25
2018-07-20T13:31:04.159Z,36.93
2018-07-20T13:33:37.857Z,36.73
2018-07-20T13:36:08.861Z,35.32
2018-07-20T13:38:39.661Z,36.08
2018-07-20T13:41:11.623Z,34.96
2018-07-20T13:43:43.379Z,35.46
2018-07-20T13:46:14.467Z,35.44
2018-07-20T13:48:45.867Z,35.91
2018-07-20T13:51:18.541Z,35.64
2018-07-20T13:53:49.473Z,35.00
2018-07-20T13:56:21.431Z,34.49
2018-07-20T13:58:53.370Z,34.13
2018-07-20T14:01:26.772Z,34.07
2018-07-20T14:03:58.414Z,34.95
2018-07-20T14:06:31.284Z,35.81
2018-07-20T14:09:06.615Z,34.03
2018-07-20T14:11:37.763Z,34.67
2018-07-20T14:14:09.009Z,34.22
2018-07-20T14:16:40.747Z,35.28
2018-07-20T14:19:11.803Z,34.42
2018-07-20T14:21:42.766Z,34.68
2018-07-20T14:24:15.032Z,34.66
2018-07-20T14:26:45.817Z,34.66
2018-07-20T14:29:17.261Z,34.49
2018-07-20T14:31:52.291Z,34.33
2018-07-20T14:34:23.537Z,33.66
2018-07-20T14:36:54.439Z,33.53
2018-07-20T14:39:26.289Z,34.20
2018-07-20T14:41:58.026Z,33.66
2018-07-20T14:44:29.471Z,33.22
2018-07-20T14:47:01.176Z,33.44
2018-07-20T14:49:31.880Z,33.77
2018-07-20T14:52:02.806Z,34.00
2018-07-20T14:54:33.868Z,34.62
2018-07-20T14:57:05.839Z,33.81
2018-07-20T14:59:37.701Z,34.11
2018-07-20T15:02:08.491Z,33.59
2018-07-20T15:04:39.843Z,33.88
2018-07-20T15:07:11.114Z,33.78
2018-07-20T15:09:42.057Z,33.42
2018-07-20T15:12:12.995Z,33.59
2018-07-20T15:14:44.545Z,33.74
2018-07-20T15:17:17.816Z,33.92
2018-07-20T15:19:48.647Z,34.01
2018-07-20T15:22:20.292Z,33.13
2018-07-20T15:24:51.085Z,33.14
2018-07-20T15:27:21.780Z,33.71
2018-07-20T15:29:52.522Z,33.23
2018-07-20T15:32:23.947Z,33.07
2018-07-20T15:34:55.634Z,33.13
2018-07-20T15:37:27.584Z,32.69
2018-07-20T15:39:58.724Z,32.92
2018-07-20T15:42:29.719Z,32.13
2018-07-20T15:45:01.011Z,32.69
2018-07-20T15:47:32.567Z,32.47
2018-07-20T15:50:04.545Z,32.43
2018-07-20T15:55:09.659Z,32.78
2018-07-20T15:57:42.753Z,32.51
2018-07-20T16:00:14.678Z,32.27
2018-07-20T16:02:47.691Z,32.30
2018-07-20T16:05:24.457Z,32.13
2018-07-20T16:07:59.445Z,31.90
2018-07-20T16:10:33.249Z,32.27
2018-07-20T16:13:05.866Z,31.97
2018-07-20T16:15:40.884Z,31.80
2018-07-20T16:18:14.155Z,31.94
2018-07-20T16:20:46.605Z,31.81
2018-07-20T16:23:18.707Z,31.91
2018-07-20T16:25:50.319Z,31.53
2018-07-20T16:28:22.875Z,31.52
2018-07-20T16:30:56.883Z,31.59
2018-07-20T16:33:28.385Z,31.46
2018-07-20T16:36:00.647Z,31.79
2018-07-20T16:38:32.324Z,31.64
2018-07-20T16:41:03.913Z,31.59
2018-07-20T16:43:35.583Z,31.31
2018-07-20T16:46:07.768Z,31.35
2018-07-20T16:48:40.385Z,31.28
2018-07-20T16:51:13.602Z,31.18
2018-07-20T16:53:45.035Z,31.14
2018-07-20T16:56:15.785Z,31.24
2018-07-20T16:58:48.322Z,31.33
2018-07-20T17:01:20.180Z,31.40
2018-07-20T17:03:51.965Z,31.14
2018-07-20T17:06:23.911Z,30.90
2018-07-20T17:08:55.910Z,31.10
2018-07-20T17:11:26.687Z,30.80
2018-07-20T17:13:57.715Z,30.76
2018-07-20T17:16:29.508Z,30.90
2018-07-20T17:19:01.063Z,30.58
2018-07-20T17:21:33.741Z,30.59
2018-07-20T17:24:05.065Z,30.52
2018-07-20T17:26:37.086Z,30.38
2018-07-20T17:29:09.101Z,30.31
2018-07-20T17:31:40.213Z,30.33
2018-07-20T17:34:10.775Z,30.20
2018-07-20T17:36:41.803Z,30.16
2018-07-20T17:39:14.381Z,30.27
2018-07-20T17:41:46.959Z,30.01
2018-07-20T17:44:17.906Z,30.02
2018-07-20T17:46:48.999Z,29.94
2018-07-20T17:49:21.428Z,29.92
2018-07-20T17:51:53.451Z,29.86
2018-07-20T17:54:27.040Z,29.74
2018-07-20T17:56:58.165Z,29.69
2018-07-20T17:59:29.449Z,29.63
2018-07-20T18:02:01.299Z,29.56
2018-07-20T18:04:33.811Z,29.54
2018-07-20T18:07:07.388Z,29.39
2018-07-20T18:09:40.290Z,29.22
2018-07-20T18:12:19.106Z,29.14
2018-07-20T18:14:53.079Z,29.15
2018-07-20T18:17:24.135Z,29.15
2018-07-20T18:19:55.942Z,29.15
2018-07-20T18:22:28.326Z,28.89
2018-07-20T18:24:59.089Z,28.39
2018-07-20T18:27:31.267Z,28.07
2018-07-20T18:30:01.876Z,27.93
2018-07-20T18:32:33.420Z,27.78
2018-07-20T18:35:05.022Z,27.72
2018-07-20T18:37:36.649Z,27.75
2018-07-20T18:40:09.959Z,27.52
2018-07-20T18:42:41.862Z,27.32
2018-07-20T18:45:12.646Z,27.14
2018-07-20T18:47:44.697Z,27.05
2018-07-20T18:50:17.352Z,27.00
2018-07-20T18:52:48.203Z,26.94
2018-07-20T18:55:20.217Z,26.84
2018-07-20T18:57:52.556Z,26.79
2018-07-20T19:00:23.317Z,26.72
2018-07-20T19:02:54.934Z,26.58
2018-07-20T19:05:26.463Z,26.49
2018-07-20T19:07:56.794Z,26.41
2018-07-20T19:10:27.754Z,26.29
2018-07-20T19:12:59.763Z,26.03
2018-07-20T19:15:31.537Z,25.81
2018-07-20T19:18:02.555Z,25.63
2018-07-20T19:20:34.524Z,25.58
2018-07-20T19:23:05.715Z,25.63
2018-07-20T19:25:38.145Z,25.61
2018-07-20T19:28:11.465Z,25.46
2018-07-20T19:30:43.381Z,25.34
2018-07-20T19:33:15.446Z,25.23
2018-07-20T19:35:47.312Z,25.19
2018-07-20T19:38:18.661Z,25.10
2018-07-20T19:40:49.534Z,24.93
2018-07-20T19:43:21.529Z,24.85
2018-07-20T19:45:54.167Z,24.91
2018-07-20T19:48:25.512Z,24.80
2018-07-20T19:50:58.840Z,24.73
2018-07-20T19:53:30.047Z,24.73
2018-07-20T19:56:01.934Z,24.65
2018-07-20T19:58:33.445Z,24.56
2018-07-20T20:01:06.109Z,24.39
2018-07-20T20:03:39.009Z,24.38
2018-07-20T20:06:10.605Z,24.29
2018-07-20T20:08:42.096Z,24.13
2018-07-20T20:11:15.864Z,24.01
2018-07-20T20:13:47.085Z,23.82
2018-07-20T20:16:20.155Z,23.69
2018-07-20T20:18:52.814Z,23.56
2018-07-20T20:21:27.238Z,23.54
2018-07-20T20:23:58.874Z,23.47
2018-07-20T20:26:30.360Z,23.44
2018-07-20T20:29:01.968Z,23.33
2018-07-20T20:31:36.397Z,23.25
2018-07-20T20:34:09.141Z,23.25
2018-07-20T20:36:40.376Z,23.32
2018-07-20T20:39:13.501Z,23.11
2018-07-20T20:41:45.152Z,22.91
2018-07-20T20:44:16.148Z,22.96
2018-07-20T20:46:48.563Z,22.77
2018-07-20T20:49:20.879Z,22.78
2018-07-20T20:51:52.155Z,22.70
2018-07-20T20:54:23.396Z,22.80
2018-07-20T20:56:54.566Z,22.90
2018-07-20T20:59:25.581Z,22.88
2018-07-20T21:01:56.909Z,22.86
2018-07-20T21:04:28.573Z,22.76
2018-07-20T21:06:59.437Z,22.67
2018-07-20T21:09:30.181Z,22.71
2018-07-20T21:12:01.079Z,22.76
2018-07-20T21:14:31.737Z,22.70
2018-07-20T21:17:03.396Z,22.60
2018-07-20T21:19:34.452Z,22.55
2018-07-20T21:22:06.569Z,22.44
2018-07-20T21:24:37.787Z,22.33
2018-07-20T21:27:08.552Z,22.37
2018-07-20T21:29:40.656Z,22.43
2018-07-20T21:32:17.805Z,22.46
2018-07-20T21:34:51.655Z,22.51
2018-07-20T21:37:24.001Z,22.45
2018-07-20T21:39:55.315Z,22.33
2018-07-20T21:42:26.917Z,22.22
2018-07-20T21:44:57.901Z,22.05
2018-07-20T21:47:29.377Z,22.08
2018-07-20T21:50:00.532Z,22.17
2018-07-20T21:52:31.745Z,22.35
2018-07-20T21:55:03.535Z,22.42
2018-07-20T21:57:34.748Z,22.39
2018-07-20T22:00:12.882Z,22.54
2018-07-20T22:02:44.487Z,22.60
2018-07-20T22:05:16.194Z,22.47
2018-07-20T22:07:59.222Z,22.39
2018-07-20T22:10:32.161Z,22.30
2018-07-20T22:13:09.497Z,22.16
2018-07-20T22:15:40.889Z,21.96
2018-07-20T22:18:11.626Z,21.89
2018-07-20T22:20:42.631Z,21.84
2018-07-20T22:23:13.981Z,21.83
2018-07-20T22:25:44.452Z,21.95
2018-07-20T22:28:16.854Z,21.89
2018-07-20T22:30:47.762Z,21.83
2018-07-20T22:33:19.946Z,21.67
2018-07-20T22:35:51.829Z,21.55
2018-07-20T22:38:23.604Z,21.59
2018-07-20T22:40:54.723Z,21.52
2018-07-20T22:43:27.769Z,21.57
2018-07-20T22:45:59.420Z,21.56
2018-07-20T22:48:31.510Z,21.53
2018-07-20T22:51:05.123Z,21.54
2018-07-20T22:53:37.991Z,21.38
2018-07-20T22:56:09.543Z,21.15
2018-07-20T22:58:46.243Z,21.02
2018-07-20T23:01:20.768Z,20.92
2018-07-20T23:03:55.968Z,20.80
2018-07-20T23:06:27.696Z,20.67
2018-07-20T23:08:59.043Z,20.63
2018-07-20T23:11:33.120Z,20.54
2018-07-20T23:14:06.146Z,20.56
2018-07-20T23:16:38.608Z,20.58
2018-07-20T23:19:11.209Z,20.55
2018-07-20T23:21:42.332Z,20.50
2018-07-20T23:24:13.859Z,20.46
2018-07-20T23:26:46.492Z,20.47
2018-07-20T23:29:17.905Z,20.45
2018-07-20T23:31:48.799Z,20.41
2018-07-20T23:34:19.592Z,20.39
2018-07-20T23:36:50.200Z,20.39
2018-07-20T23:39:20.877Z,20.33
2018-07-20T23:41:53.120Z,20.20
2018-07-20T23:44:24.579Z,20.13
2018-07-20T23:46:55.608Z,20.12
2018-07-20T23:49:26.274Z,20.11
2018-07-20T23:51:57.080Z,20.03
2018-07-20T23:54:28.309Z,20.01
2018-07-20T23:56:58.955Z,19.93
2018-07-20T23:59:29.829Z,19.93
